sensor_id;sensor_type;location;lat;lon;timestamp;temperature;humidity
1536;DHT22;761;50.074;8.228;2022-11-20T00:01:55;3.70;1.00
1536;DHT22;761;50.074;8.228;2022-11-20T00:04:24;3.70;1.00
1536;DHT22;761;50.074;8.228;2022-11-20T00:06:52;3.50;1.00
1536;DHT22;761;50.074;8.228;2022-11-20T00:09:21;3.70;1.00
1536;DHT22;761;50.074;8.228;2022-11-20T00:11:49;3.70;1.00
1536;DHT22;761;50.074;8.228;2022-11-20T00:16:48;3.80;1.00
1536;DHT22;761;50.074;8.228;2022-11-20T00:19:16;3.70;1.00
1536;DHT22;761;50.074;8.228;2022-11-20T00:21:45;3.70;1.00
1536;DHT22;761;50.074;8.228;2022-11-20T00:24:13;3.50;1.00
1536;DHT22;761;50.074;8.228;2022-11-20T00:26:41;3.50;1.00
1536;DHT22;761;50.074;8.228;2022-11-20T00:29:10;3.40;1.00
1536;DHT22;761;50.074;8.228;2022-11-20T00:31:39;3.40;1.00
1536;DHT22;761;50.074;8.228;2022-11-20T00:34:09;3.40;1.00
1536;DHT22;761;50.074;8.228;2022-11-20T00:36:37;3.40;1.00
1536;DHT22;761;50.074;8.228;2022-11-20T00:39:08;3.40;1.00
1536;DHT22;761;50.074;8.228;2022-11-20T00:41:39;3.40;1.00
1536;DHT22;761;50.074;8.228;2022-11-20T00:44:07;3.40;1.00
1536;DHT22;761;50.074;8.228;2022-11-20T00:46:35;3.40;1.00
1536;DHT22;761;50.074;8.228;2022-11-20T00:49:06;3.40;1.00
1536;DHT22;761;50.074;8.228;2022-11-20T00:51:34;3.40;1.00
1536;DHT22;761;50.074;8.228;2022-11-20T00:54:03;3.40;1.00
1536;DHT22;761;50.074;8.228;2022-11-20T00:56:34;3.30;1.00
1536;DHT22;761;50.074;8.228;2022-11-20T00:59:02;3.30;1.00
1536;DHT22;761;50.074;8.228;2022-11-20T01:01:31;3.40;1.00
1536;DHT22;761;50.074;8.228;2022-11-20T01:04:00;3.40;1.00
1536;DHT22;761;50.074;8.228;2022-11-20T01:06:31;3.30;1.00
1536;DHT22;761;50.074;8.228;2022-11-20T01:09:02;3.30;1.00
1536;DHT22;761;50.074;8.228;2022-11-20T01:11:33;3.20;1.00
1536;DHT22;761;50.074;8.228;2022-11-20T01:14:03;3.20;1.00
1536;DHT22;761;50.074;8.228;2022-11-20T01:16:36;3.10;1.00
1536;DHT22;761;50.074;8.228;2022-11-20T01:19:07;3.00;1.00
1536;DHT22;761;50.074;8.228;2022-11-20T01:21:39;3.20;1.00
1536;DHT22;761;50.074;8.228;2022-11-20T01:24:10;3.20;1.00
1536;DHT22;761;50.074;8.228;2022-11-20T01:26:43;3.20;1.00
1536;DHT22;761;50.074;8.228;2022-11-20T01:29:14;3.30;1.00
1536;DHT22;761;50.074;8.228;2022-11-20T01:31:43;3.30;1.00
1536;DHT22;761;50.074;8.228;2022-11-20T01:34:14;3.30;1.00
1536;DHT22;761;50.074;8.228;2022-11-20T01:36:44;3.20;1.00
1536;DHT22;761;50.074;8.228;2022-11-20T01:39:14;3.30;1.00
1536;DHT22;761;50.074;8.228;2022-11-20T01:41:44;3.40;1.00
1536;DHT22;761;50.074;8.228;2022-11-20T01:44:57;3.30;1.00
1536;DHT22;761;50.074;8.228;2022-11-20T01:47:32;3.40;1.00
1536;DHT22;761;50.074;8.228;2022-11-20T01:50:06;3.50;1.00
1536;DHT22;761;50.074;8.228;2022-11-20T01:52:40;3.40;1.00
1536;DHT22;761;50.074;8.228;2022-11-20T01:55:15;3.40;1.00
1536;DHT22;761;50.074;8.228;2022-11-20T01:57:45;3.40;1.00
1536;DHT22;761;50.074;8.228;2022-11-20T02:00:16;3.30;1.00
1536;DHT22;761;50.074;8.228;2022-11-20T02:02:48;3.40;1.00
1536;DHT22;761;50.074;8.228;2022-11-20T02:05:24;3.50;1.00
1536;DHT22;761;50.074;8.228;2022-11-20T02:07:57;3.50;1.00
1536;DHT22;761;50.074;8.228;2022-11-20T02:10:26;3.40;1.00
1536;DHT22;761;50.074;8.228;2022-11-20T02:12:55;3.30;1.00
1536;DHT22;761;50.074;8.228;2022-11-20T02:15:41;3.30;1.00
1536;DHT22;761;50.074;8.228;2022-11-20T02:18:11;3.20;1.00
1536;DHT22;761;50.074;8.228;2022-11-20T02:20:42;3.20;1.00
1536;DHT22;761;50.074;8.228;2022-11-20T02:23:19;3.30;1.00
1536;DHT22;761;50.074;8.228;2022-11-20T02:25:52;3.30;1.00
1536;DHT22;761;50.074;8.228;2022-11-20T02:28:22;3.30;1.00
1536;DHT22;761;50.074;8.228;2022-11-20T02:30:53;3.20;1.00
1536;DHT22;761;50.074;8.228;2022-11-20T02:33:21;3.10;1.00
1536;DHT22;761;50.074;8.228;2022-11-20T02:35:52;3.10;1.00
1536;DHT22;761;50.074;8.228;2022-11-20T02:38:20;3.10;1.00
1536;DHT22;761;50.074;8.228;2022-11-20T02:40:49;3.20;1.00
1536;DHT22;761;50.074;8.228;2022-11-20T02:43:23;3.20;1.00
1536;DHT22;761;50.074;8.228;2022-11-20T02:45:51;3.20;1.00
1536;DHT22;761;50.074;8.228;2022-11-20T02:48:19;3.30;1.00
1536;DHT22;761;50.074;8.228;2022-11-20T02:50:51;3.30;1.00
1536;DHT22;761;50.074;8.228;2022-11-20T02:55:48;3.30;1.00
1536;DHT22;761;50.074;8.228;2022-11-20T02:58:16;3.20;1.00
1536;DHT22;761;50.074;8.228;2022-11-20T03:00:46;3.20;1.00
1536;DHT22;761;50.074;8.228;2022-11-20T03:03:14;3.30;1.00
1536;DHT22;761;50.074;8.228;2022-11-20T03:05:42;3.30;1.00
1536;DHT22;761;50.074;8.228;2022-11-20T03:08:10;3.40;1.00
1536;DHT22;761;50.074;8.228;2022-11-20T03:10:41;3.40;1.00
1536;DHT22;761;50.074;8.228;2022-11-20T03:13:12;3.40;1.00
1536;DHT22;761;50.074;8.228;2022-11-20T03:15:40;3.20;1.00
1536;DHT22;761;50.074;8.228;2022-11-20T03:18:10;3.20;1.00
1536;DHT22;761;50.074;8.228;2022-11-20T03:20:40;3.30;1.00
1536;DHT22;761;50.074;8.228;2022-11-20T03:23:08;3.30;1.00
1536;DHT22;761;50.074;8.228;2022-11-20T03:25:37;3.50;1.00
1536;DHT22;761;50.074;8.228;2022-11-20T03:28:05;3.60;1.00
1536;DHT22;761;50.074;8.228;2022-11-20T03:30:33;3.70;1.00
1536;DHT22;761;50.074;8.228;2022-11-20T03:33:02;3.70;1.00
1536;DHT22;761;50.074;8.228;2022-11-20T03:35:34;3.70;1.00
1536;DHT22;761;50.074;8.228;2022-11-20T03:38:03;3.50;1.00
1536;DHT22;761;50.074;8.228;2022-11-20T03:40:31;3.30;1.00
1536;DHT22;761;50.074;8.228;2022-11-20T03:42:59;3.40;1.00
1536;DHT22;761;50.074;8.228;2022-11-20T03:45:27;3.50;1.00
1536;DHT22;761;50.074;8.228;2022-11-20T03:47:56;3.50;1.00
1536;DHT22;761;50.074;8.228;2022-11-20T03:50:24;3.60;1.00
1536;DHT22;761;50.074;8.228;2022-11-20T03:52:53;3.70;1.00
1536;DHT22;761;50.074;8.228;2022-11-20T03:55:22;3.70;1.00
1536;DHT22;761;50.074;8.228;2022-11-20T03:57:50;3.50;1.00
1536;DHT22;761;50.074;8.228;2022-11-20T04:00:19;3.30;1.00
1536;DHT22;761;50.074;8.228;2022-11-20T04:02:49;3.30;1.00
1536;DHT22;761;50.074;8.228;2022-11-20T04:05:18;3.30;1.00
1536;DHT22;761;50.074;8.228;2022-11-20T04:07:46;3.30;1.00
1536;DHT22;761;50.074;8.228;2022-11-20T04:10:16;3.30;1.00
1536;DHT22;761;50.074;8.228;2022-11-20T04:12:44;3.40;1.00
1536;DHT22;761;50.074;8.228;2022-11-20T04:15:13;3.50;1.00
1536;DHT22;761;50.074;8.228;2022-11-20T04:17:41;3.40;1.00
1536;DHT22;761;50.074;8.228;2022-11-20T04:20:09;3.60;1.00
1536;DHT22;761;50.074;8.228;2022-11-20T04:22:38;3.50;1.00
1536;DHT22;761;50.074;8.228;2022-11-20T04:25:07;3.50;1.00
1536;DHT22;761;50.074;8.228;2022-11-20T04:27:37;3.40;1.00
1536;DHT22;761;50.074;8.228;2022-11-20T04:30:06;3.30;1.00
1536;DHT22;761;50.074;8.228;2022-11-20T04:32:34;3.40;1.00
1536;DHT22;761;50.074;8.228;2022-11-20T04:35:03;3.40;1.00
1536;DHT22;761;50.074;8.228;2022-11-20T04:37:31;3.30;1.00
1536;DHT22;761;50.074;8.228;2022-11-20T04:40:00;3.30;1.00
1536;DHT22;761;50.074;8.228;2022-11-20T04:42:28;3.30;1.00
1536;DHT22;761;50.074;8.228;2022-11-20T04:44:58;3.20;1.00
1536;DHT22;761;50.074;8.228;2022-11-20T04:47:26;3.30;1.00
1536;DHT22;761;50.074;8.228;2022-11-20T04:49:55;3.40;1.00
1536;DHT22;761;50.074;8.228;2022-11-20T04:52:23;3.30;1.00
1536;DHT22;761;50.074;8.228;2022-11-20T04:54:51;3.30;1.00
1536;DHT22;761;50.074;8.228;2022-11-20T04:57:20;3.40;1.00
1536;DHT22;761;50.074;8.228;2022-11-20T04:59:49;3.20;1.00
1536;DHT22;761;50.074;8.228;2022-11-20T05:02:21;3.20;1.00
1536;DHT22;761;50.074;8.228;2022-11-20T05:04:49;3.00;1.00
1536;DHT22;761;50.074;8.228;2022-11-20T05:07:17;3.10;1.00
1536;DHT22;761;50.074;8.228;2022-11-20T05:09:45;3.30;1.00
1536;DHT22;761;50.074;8.228;2022-11-20T05:12:14;3.30;1.00
1536;DHT22;761;50.074;8.228;2022-11-20T05:14:42;3.20;1.00
1536;DHT22;761;50.074;8.228;2022-11-20T05:17:11;3.20;1.00
1536;DHT22;761;50.074;8.228;2022-11-20T05:19:40;3.20;1.00
1536;DHT22;761;50.074;8.228;2022-11-20T05:22:08;3.20;1.00
1536;DHT22;761;50.074;8.228;2022-11-20T05:24:36;3.30;1.00
1536;DHT22;761;50.074;8.228;2022-11-20T05:27:04;3.20;1.00
1536;DHT22;761;50.074;8.228;2022-11-20T05:29:33;3.40;1.00
1536;DHT22;761;50.074;8.228;2022-11-20T05:32:01;3.40;1.00
1536;DHT22;761;50.074;8.228;2022-11-20T05:34:29;3.50;1.00
1536;DHT22;761;50.074;8.228;2022-11-20T05:36:59;3.50;1.00
1536;DHT22;761;50.074;8.228;2022-11-20T05:39:27;3.50;1.00
1536;DHT22;761;50.074;8.228;2022-11-20T05:41:55;3.60;1.00
1536;DHT22;761;50.074;8.228;2022-11-20T05:44:37;3.60;1.00
1536;DHT22;761;50.074;8.228;2022-11-20T05:47:06;3.50;1.00
1536;DHT22;761;50.074;8.228;2022-11-20T05:49:34;3.50;1.00
1536;DHT22;761;50.074;8.228;2022-11-20T05:52:04;3.50;1.00
1536;DHT22;761;50.074;8.228;2022-11-20T05:54:32;3.40;1.00
1536;DHT22;761;50.074;8.228;2022-11-20T05:57:00;3.20;1.00
1536;DHT22;761;50.074;8.228;2022-11-20T05:59:29;3.30;1.00
1536;DHT22;761;50.074;8.228;2022-11-20T06:01:59;3.30;1.00
1536;DHT22;761;50.074;8.228;2022-11-20T06:04:27;3.30;1.00
1536;DHT22;761;50.074;8.228;2022-11-20T06:06:56;3.40;1.00
1536;DHT22;761;50.074;8.228;2022-11-20T06:09:25;3.60;1.00
1536;DHT22;761;50.074;8.228;2022-11-20T06:11:53;3.60;1.00
1536;DHT22;761;50.074;8.228;2022-11-20T06:14:21;3.60;1.00
1536;DHT22;761;50.074;8.228;2022-11-20T06:16:50;3.50;1.00
1536;DHT22;761;50.074;8.228;2022-11-20T06:19:18;3.60;1.00
1536;DHT22;761;50.074;8.228;2022-11-20T06:21:47;3.70;1.00
1536;DHT22;761;50.074;8.228;2022-11-20T06:24:16;3.80;1.00
1536;DHT22;761;50.074;8.228;2022-11-20T06:26:46;3.80;1.00
1536;DHT22;761;50.074;8.228;2022-11-20T06:29:14;4.00;1.00
1536;DHT22;761;50.074;8.228;2022-11-20T06:31:42;4.00;1.00
1536;DHT22;761;50.074;8.228;2022-11-20T06:34:11;3.80;1.00
1536;DHT22;761;50.074;8.228;2022-11-20T06:36:39;3.70;1.00
1536;DHT22;761;50.074;8.228;2022-11-20T06:39:07;3.70;1.00
1536;DHT22;761;50.074;8.228;2022-11-20T06:41:36;3.60;1.00
1536;DHT22;761;50.074;8.228;2022-11-20T06:44:06;3.60;1.00
1536;DHT22;761;50.074;8.228;2022-11-20T06:46:34;3.60;1.00
1536;DHT22;761;50.074;8.228;2022-11-20T06:49:02;3.50;1.00
1536;DHT22;761;50.074;8.228;2022-11-20T06:51:33;3.50;1.00
1536;DHT22;761;50.074;8.228;2022-11-20T06:54:01;3.40;1.00
1536;DHT22;761;50.074;8.228;2022-11-20T06:56:30;3.30;1.00
1536;DHT22;761;50.074;8.228;2022-11-20T06:58:58;3.30;1.00
1536;DHT22;761;50.074;8.228;2022-11-20T07:01:27;3.30;1.00
1536;DHT22;761;50.074;8.228;2022-11-20T07:03:58;3.40;1.00
1536;DHT22;761;50.074;8.228;2022-11-20T07:06:26;3.40;1.00
1536;DHT22;761;50.074;8.228;2022-11-20T07:08:54;3.30;1.00
1536;DHT22;761;50.074;8.228;2022-11-20T07:11:23;3.20;1.00
1536;DHT22;761;50.074;8.228;2022-11-20T07:13:51;3.30;1.00
1536;DHT22;761;50.074;8.228;2022-11-20T07:16:19;3.30;1.00
1536;DHT22;761;50.074;8.228;2022-11-20T07:18:49;3.30;1.00
1536;DHT22;761;50.074;8.228;2022-11-20T07:21:17;3.30;1.00
1536;DHT22;761;50.074;8.228;2022-11-20T07:23:45;3.30;1.00
1536;DHT22;761;50.074;8.228;2022-11-20T07:26:14;3.50;1.00
1536;DHT22;761;50.074;8.228;2022-11-20T07:28:44;3.30;1.00
1536;DHT22;761;50.074;8.228;2022-11-20T07:31:12;3.30;1.00
1536;DHT22;761;50.074;8.228;2022-11-20T07:33:45;3.30;1.00
1536;DHT22;761;50.074;8.228;2022-11-20T07:36:15;3.30;1.00
1536;DHT22;761;50.074;8.228;2022-11-20T07:38:43;3.30;1.00
1536;DHT22;761;50.074;8.228;2022-11-20T07:41:11;3.40;1.00
1536;DHT22;761;50.074;8.228;2022-11-20T07:43:39;3.40;1.00
1536;DHT22;761;50.074;8.228;2022-11-20T07:46:08;3.50;1.00
1536;DHT22;761;50.074;8.228;2022-11-20T07:48:36;3.50;1.00
1536;DHT22;761;50.074;8.228;2022-11-20T07:51:04;3.60;1.00
1536;DHT22;761;50.074;8.228;2022-11-20T07:53:33;3.60;1.00
1536;DHT22;761;50.074;8.228;2022-11-20T07:56:02;3.60;1.00
1536;DHT22;761;50.074;8.228;2022-11-20T07:58:31;3.50;1.00
1536;DHT22;761;50.074;8.228;2022-11-20T08:01:05;3.50;1.00
1536;DHT22;761;50.074;8.228;2022-11-20T08:03:34;3.60;1.00
1536;DHT22;761;50.074;8.228;2022-11-20T08:06:05;3.70;1.00
1536;DHT22;761;50.074;8.228;2022-11-20T08:08:35;3.70;1.00
1536;DHT22;761;50.074;8.228;2022-11-20T08:11:08;3.70;1.00
1536;DHT22;761;50.074;8.228;2022-11-20T08:16:41;3.60;1.00
1536;DHT22;761;50.074;8.228;2022-11-20T08:19:11;3.80;1.00
1536;DHT22;761;50.074;8.228;2022-11-20T08:21:40;3.80;1.00
1536;DHT22;761;50.074;8.228;2022-11-20T08:24:10;3.70;1.00
1536;DHT22;761;50.074;8.228;2022-11-20T08:26:39;3.70;1.00
1536;DHT22;761;50.074;8.228;2022-11-20T08:29:07;3.70;1.00
1536;DHT22;761;50.074;8.228;2022-11-20T08:31:36;3.70;1.00
1536;DHT22;761;50.074;8.228;2022-11-20T08:34:07;3.80;1.00
1536;DHT22;761;50.074;8.228;2022-11-20T08:36:37;3.80;1.00
1536;DHT22;761;50.074;8.228;2022-11-20T08:39:05;4.00;1.00
1536;DHT22;761;50.074;8.228;2022-11-20T08:41:35;4.00;1.00
1536;DHT22;761;50.074;8.228;2022-11-20T08:44:05;4.00;1.00
1536;DHT22;761;50.074;8.228;2022-11-20T08:46:35;4.20;1.00
1536;DHT22;761;50.074;8.228;2022-11-20T08:49:04;4.40;1.00
1536;DHT22;761;50.074;8.228;2022-11-20T08:51:33;4.40;1.00
1536;DHT22;761;50.074;8.228;2022-11-20T08:54:02;4.40;1.00
1536;DHT22;761;50.074;8.228;2022-11-20T08:56:31;4.50;1.00
1536;DHT22;761;50.074;8.228;2022-11-20T09:01:50;4.30;1.00
1536;DHT22;761;50.074;8.228;2022-11-20T09:04:19;4.20;1.00
1536;DHT22;761;50.074;8.228;2022-11-20T09:06:47;4.20;1.00
1536;DHT22;761;50.074;8.228;2022-11-20T09:09:18;4.20;1.00
1536;DHT22;761;50.074;8.228;2022-11-20T09:11:47;4.20;1.00
1536;DHT22;761;50.074;8.228;2022-11-20T09:14:18;4.30;1.00
1536;DHT22;761;50.074;8.228;2022-11-20T09:16:46;4.40;1.00
1536;DHT22;761;50.074;8.228;2022-11-20T09:19:14;4.40;1.00
1536;DHT22;761;50.074;8.228;2022-11-20T09:22:03;4.50;1.00
1536;DHT22;761;50.074;8.228;2022-11-20T09:24:31;4.60;1.00
1536;DHT22;761;50.074;8.228;2022-11-20T09:29:55;4.70;1.00
1536;DHT22;761;50.074;8.228;2022-11-20T09:32:25;4.60;1.00
1536;DHT22;761;50.074;8.228;2022-11-20T09:34:54;4.50;1.00
1536;DHT22;761;50.074;8.228;2022-11-20T09:37:22;4.60;1.00
1536;DHT22;761;50.074;8.228;2022-11-20T09:39:50;4.80;1.00
1536;DHT22;761;50.074;8.228;2022-11-20T09:42:34;4.80;1.00
1536;DHT22;761;50.074;8.228;2022-11-20T09:45:24;4.80;1.00
1536;DHT22;761;50.074;8.228;2022-11-20T09:48:25;4.90;1.00
1536;DHT22;761;50.074;8.228;2022-11-20T09:51:05;4.70;1.00
1536;DHT22;761;50.074;8.228;2022-11-20T09:53:50;4.70;1.00
1536;DHT22;761;50.074;8.228;2022-11-20T09:56:23;4.70;1.00
1536;DHT22;761;50.074;8.228;2022-11-20T09:58:54;4.70;1.00
1536;DHT22;761;50.074;8.228;2022-11-20T10:01:29;4.80;1.00
1536;DHT22;761;50.074;8.228;2022-11-20T10:04:01;4.80;1.00
1536;DHT22;761;50.074;8.228;2022-11-20T10:06:34;4.80;1.00
1536;DHT22;761;50.074;8.228;2022-11-20T10:09:18;4.70;1.00
1536;DHT22;761;50.074;8.228;2022-11-20T10:11:57;4.70;1.00
1536;DHT22;761;50.074;8.228;2022-11-20T10:14:38;4.70;1.00
1536;DHT22;761;50.074;8.228;2022-11-20T10:17:17;4.70;1.00
1536;DHT22;761;50.074;8.228;2022-11-20T10:19:56;4.60;1.00
1536;DHT22;761;50.074;8.228;2022-11-20T10:22:40;4.60;1.00
1536;DHT22;761;50.074;8.228;2022-11-20T10:25:14;4.60;1.00
1536;DHT22;761;50.074;8.228;2022-11-20T10:28:12;4.60;1.00
1536;DHT22;761;50.074;8.228;2022-11-20T10:30:46;4.60;1.00
1536;DHT22;761;50.074;8.228;2022-11-20T10:33:21;4.60;1.00
1536;DHT22;761;50.074;8.228;2022-11-20T10:35:55;4.60;1.00
1536;DHT22;761;50.074;8.228;2022-11-20T10:38:31;4.50;1.00
1536;DHT22;761;50.074;8.228;2022-11-20T10:41:04;4.30;1.00
1536;DHT22;761;50.074;8.228;2022-11-20T10:43:57;4.30;1.00
1536;DHT22;761;50.074;8.228;2022-11-20T10:46:35;4.30;1.00
1536;DHT22;761;50.074;8.228;2022-11-20T10:49:14;4.40;1.00
1536;DHT22;761;50.074;8.228;2022-11-20T10:51:54;4.30;1.00
1536;DHT22;761;50.074;8.228;2022-11-20T10:54:32;4.50;1.00
1536;DHT22;761;50.074;8.228;2022-11-20T10:57:10;4.60;1.00
1536;DHT22;761;50.074;8.228;2022-11-20T10:59:55;4.80;1.00
1536;DHT22;761;50.074;8.228;2022-11-20T11:02:34;4.80;1.00
1536;DHT22;761;50.074;8.228;2022-11-20T11:05:15;4.90;1.00
1536;DHT22;761;50.074;8.228;2022-11-20T11:07:48;5.10;1.00
1536;DHT22;761;50.074;8.228;2022-11-20T11:10:20;5.20;1.00
1536;DHT22;761;50.074;8.228;2022-11-20T11:12:50;5.20;1.00
1536;DHT22;761;50.074;8.228;2022-11-20T11:15:27;5.10;1.00
1536;DHT22;761;50.074;8.228;2022-11-20T11:17:56;5.10;1.00
1536;DHT22;761;50.074;8.228;2022-11-20T11:20:26;4.90;1.00
1536;DHT22;761;50.074;8.228;2022-11-20T11:22:57;4.90;1.00
1536;DHT22;761;50.074;8.228;2022-11-20T11:25:28;5.20;1.00
1536;DHT22;761;50.074;8.228;2022-11-20T11:27:59;5.20;1.00
1536;DHT22;761;50.074;8.228;2022-11-20T11:30:40;5.10;1.00
1536;DHT22;761;50.074;8.228;2022-11-20T11:33:19;5.20;1.00
1536;DHT22;761;50.074;8.228;2022-11-20T11:35:53;5.40;1.00
1536;DHT22;761;50.074;8.228;2022-11-20T11:38:30;5.20;1.00
1536;DHT22;761;50.074;8.228;2022-11-20T11:41:04;5.20;1.00
1536;DHT22;761;50.074;8.228;2022-11-20T11:43:37;5.30;1.00
1536;DHT22;761;50.074;8.228;2022-11-20T11:46:32;5.10;1.00
1536;DHT22;761;50.074;8.228;2022-11-20T11:49:14;5.40;1.00
1536;DHT22;761;50.074;8.228;2022-11-20T11:52:05;5.40;1.00
1536;DHT22;761;50.074;8.228;2022-11-20T11:54:39;5.40;1.00
1536;DHT22;761;50.074;8.228;2022-11-20T11:57:17;5.50;1.00
1536;DHT22;761;50.074;8.228;2022-11-20T11:59:59;5.70;1.00
1536;DHT22;761;50.074;8.228;2022-11-20T12:02:36;5.80;1.00
1536;DHT22;761;50.074;8.228;2022-11-20T12:05:18;5.80;1.00
1536;DHT22;761;50.074;8.228;2022-11-20T12:07:54;5.80;1.00
1536;DHT22;761;50.074;8.228;2022-11-20T12:10:37;5.50;1.00
1536;DHT22;761;50.074;8.228;2022-11-20T12:13:17;5.50;1.00
1536;DHT22;761;50.074;8.228;2022-11-20T12:15:49;5.40;1.00
1536;DHT22;761;50.074;8.228;2022-11-20T12:18:22;5.30;1.00
1536;DHT22;761;50.074;8.228;2022-11-20T12:21:02;5.20;1.00
1536;DHT22;761;50.074;8.228;2022-11-20T12:23:44;5.30;1.00
1536;DHT22;761;50.074;8.228;2022-11-20T12:26:20;5.30;1.00
1536;DHT22;761;50.074;8.228;2022-11-20T12:29:02;5.30;1.00
1536;DHT22;761;50.074;8.228;2022-11-20T12:31:47;5.30;1.00
1536;DHT22;761;50.074;8.228;2022-11-20T12:34:25;5.30;1.00
1536;DHT22;761;50.074;8.228;2022-11-20T12:37:05;5.40;1.00
1536;DHT22;761;50.074;8.228;2022-11-20T12:39:41;5.60;1.00
1536;DHT22;761;50.074;8.228;2022-11-20T12:45:39;5.90;1.00
1536;DHT22;761;50.074;8.228;2022-11-20T12:51:15;5.80;1.00
1536;DHT22;761;50.074;8.228;2022-11-20T12:53:56;5.70;1.00
1536;DHT22;761;50.074;8.228;2022-11-20T12:56:38;5.60;1.00
1536;DHT22;761;50.074;8.228;2022-11-20T12:59:27;5.50;1.00
1536;DHT22;761;50.074;8.228;2022-11-20T13:02:01;5.50;1.00
1536;DHT22;761;50.074;8.228;2022-11-20T13:04:54;5.60;1.00
1536;DHT22;761;50.074;8.228;2022-11-20T13:07:28;5.70;1.00
1536;DHT22;761;50.074;8.228;2022-11-20T13:09:56;5.90;1.00
1536;DHT22;761;50.074;8.228;2022-11-20T13:12:33;5.90;1.00
1536;DHT22;761;50.074;8.228;2022-11-20T13:15:14;6.00;1.00
1536;DHT22;761;50.074;8.228;2022-11-20T13:17:48;5.90;1.00
1536;DHT22;761;50.074;8.228;2022-11-20T13:20:20;5.90;1.00
1536;DHT22;761;50.074;8.228;2022-11-20T13:22:50;5.90;1.00
1536;DHT22;761;50.074;8.228;2022-11-20T13:25:23;5.90;1.00
1536;DHT22;761;50.074;8.228;2022-11-20T13:27:53;6.10;1.00
1536;DHT22;761;50.074;8.228;2022-11-20T13:30:24;6.10;1.00
1536;DHT22;761;50.074;8.228;2022-11-20T13:32:54;6.10;1.00
1536;DHT22;761;50.074;8.228;2022-11-20T13:35:27;6.00;1.00
1536;DHT22;761;50.074;8.228;2022-11-20T13:38:02;5.90;1.00
1536;DHT22;761;50.074;8.228;2022-11-20T13:40:30;6.10;1.00
1536;DHT22;761;50.074;8.228;2022-11-20T13:43:11;6.00;1.00
1536;DHT22;761;50.074;8.228;2022-11-20T13:45:54;5.80;1.00
1536;DHT22;761;50.074;8.228;2022-11-20T13:48:26;5.70;1.00
1536;DHT22;761;50.074;8.228;2022-11-20T13:51:06;5.80;1.00
1536;DHT22;761;50.074;8.228;2022-11-20T13:54:24;5.90;1.00
1536;DHT22;761;50.074;8.228;2022-11-20T13:57:05;6.00;1.00
1536;DHT22;761;50.074;8.228;2022-11-20T13:59:56;6.10;1.00
1536;DHT22;761;50.074;8.228;2022-11-20T14:02:27;6.20;1.00
1536;DHT22;761;50.074;8.228;2022-11-20T14:04:59;6.30;1.00
1536;DHT22;761;50.074;8.228;2022-11-20T14:07:34;6.20;1.00
1536;DHT22;761;50.074;8.228;2022-11-20T14:10:04;6.20;1.00
1536;DHT22;761;50.074;8.228;2022-11-20T14:12:34;6.20;1.00
1536;DHT22;761;50.074;8.228;2022-11-20T14:15:23;6.20;1.00
1536;DHT22;761;50.074;8.228;2022-11-20T14:17:52;6.20;1.00
1536;DHT22;761;50.074;8.228;2022-11-20T14:20:24;6.10;1.00
1536;DHT22;761;50.074;8.228;2022-11-20T14:22:56;6.10;1.00
1536;DHT22;761;50.074;8.228;2022-11-20T14:25:26;6.20;1.00
1536;DHT22;761;50.074;8.228;2022-11-20T14:27:56;6.20;1.00
1536;DHT22;761;50.074;8.228;2022-11-20T14:30:43;6.40;1.00
1536;DHT22;761;50.074;8.228;2022-11-20T14:33:13;6.30;1.00
1536;DHT22;761;50.074;8.228;2022-11-20T14:35:46;6.40;1.00
1536;DHT22;761;50.074;8.228;2022-11-20T14:38:21;6.60;1.00
1536;DHT22;761;50.074;8.228;2022-11-20T14:40:50;6.50;1.00
1536;DHT22;761;50.074;8.228;2022-11-20T14:43:22;6.50;1.00
1536;DHT22;761;50.074;8.228;2022-11-20T14:45:56;6.50;1.00
1536;DHT22;761;50.074;8.228;2022-11-20T14:48:30;6.60;1.00
1536;DHT22;761;50.074;8.228;2022-11-20T14:50:59;6.50;1.00
1536;DHT22;761;50.074;8.228;2022-11-20T14:53:28;6.50;1.00
1536;DHT22;761;50.074;8.228;2022-11-20T14:55:59;6.40;1.00
1536;DHT22;761;50.074;8.228;2022-11-20T14:58:29;6.40;1.00
1536;DHT22;761;50.074;8.228;2022-11-20T15:01:02;6.40;1.00
1536;DHT22;761;50.074;8.228;2022-11-20T15:03:32;6.40;1.00
1536;DHT22;761;50.074;8.228;2022-11-20T15:06:02;6.20;1.00
1536;DHT22;761;50.074;8.228;2022-11-20T15:08:32;6.10;1.00
1536;DHT22;761;50.074;8.228;2022-11-20T15:11:01;6.20;1.00
1536;DHT22;761;50.074;8.228;2022-11-20T15:13:32;6.20;1.00
1536;DHT22;761;50.074;8.228;2022-11-20T15:16:03;6.10;1.00
1536;DHT22;761;50.074;8.228;2022-11-20T15:18:37;6.00;1.00
1536;DHT22;761;50.074;8.228;2022-11-20T15:21:26;6.00;1.00
1536;DHT22;761;50.074;8.228;2022-11-20T15:26:28;6.00;1.00
1536;DHT22;761;50.074;8.228;2022-11-20T15:28:56;5.90;1.00
1536;DHT22;761;50.074;8.228;2022-11-20T15:31:28;5.90;1.00
1536;DHT22;761;50.074;8.228;2022-11-20T15:33:57;6.00;1.00
1536;DHT22;761;50.074;8.228;2022-11-20T15:36:26;5.90;1.00
1536;DHT22;761;50.074;8.228;2022-11-20T15:38:55;6.00;1.00
1536;DHT22;761;50.074;8.228;2022-11-20T15:41:24;6.00;1.00
1536;DHT22;761;50.074;8.228;2022-11-20T15:43:52;6.00;1.00
1536;DHT22;761;50.074;8.228;2022-11-20T15:46:25;5.90;1.00
1536;DHT22;761;50.074;8.228;2022-11-20T15:48:59;6.00;1.00
1536;DHT22;761;50.074;8.228;2022-11-20T15:51:34;6.10;1.00
1536;DHT22;761;50.074;8.228;2022-11-20T15:54:10;6.10;1.00
1536;DHT22;761;50.074;8.228;2022-11-20T15:56:38;6.30;1.00
1536;DHT22;761;50.074;8.228;2022-11-20T15:59:07;6.40;1.00
1536;DHT22;761;50.074;8.228;2022-11-20T16:01:42;6.50;1.00
1536;DHT22;761;50.074;8.228;2022-11-20T16:04:14;6.50;1.00
1536;DHT22;761;50.074;8.228;2022-11-20T16:06:43;6.50;1.00
1536;DHT22;761;50.074;8.228;2022-11-20T16:09:11;6.70;1.00
1536;DHT22;761;50.074;8.228;2022-11-20T16:11:40;6.70;1.00
1536;DHT22;761;50.074;8.228;2022-11-20T16:14:10;6.70;1.00
1536;DHT22;761;50.074;8.228;2022-11-20T16:16:56;6.50;1.00
1536;DHT22;761;50.074;8.228;2022-11-20T16:19:26;6.10;1.00
1536;DHT22;761;50.074;8.228;2022-11-20T16:21:54;6.10;1.00
1536;DHT22;761;50.074;8.228;2022-11-20T16:24:28;5.90;1.00
1536;DHT22;761;50.074;8.228;2022-11-20T16:26:57;5.80;1.00
1536;DHT22;761;50.074;8.228;2022-11-20T16:29:26;6.10;1.00
1536;DHT22;761;50.074;8.228;2022-11-20T16:31:54;6.00;1.00
1536;DHT22;761;50.074;8.228;2022-11-20T16:34:23;6.20;1.00
1536;DHT22;761;50.074;8.228;2022-11-20T16:36:54;6.20;1.00
1536;DHT22;761;50.074;8.228;2022-11-20T16:39:24;6.30;1.00
1536;DHT22;761;50.074;8.228;2022-11-20T16:41:53;6.30;1.00
1536;DHT22;761;50.074;8.228;2022-11-20T16:44:21;6.30;1.00
1536;DHT22;761;50.074;8.228;2022-11-20T16:46:51;6.40;1.00
1536;DHT22;761;50.074;8.228;2022-11-20T16:49:20;6.40;1.00
1536;DHT22;761;50.074;8.228;2022-11-20T16:51:49;6.40;1.00
1536;DHT22;761;50.074;8.228;2022-11-20T16:54:19;6.40;1.00
1536;DHT22;761;50.074;8.228;2022-11-20T16:56:48;6.40;1.00
1536;DHT22;761;50.074;8.228;2022-11-20T16:59:18;6.40;1.00
1536;DHT22;761;50.074;8.228;2022-11-20T17:01:46;6.40;1.00
1536;DHT22;761;50.074;8.228;2022-11-20T17:04:15;6.30;1.00
1536;DHT22;761;50.074;8.228;2022-11-20T17:06:44;8.60;1.00
1536;DHT22;761;50.074;8.228;2022-11-20T17:09:14;6.20;1.00
1536;DHT22;761;50.074;8.228;2022-11-20T17:11:47;6.20;1.00
1536;DHT22;761;50.074;8.228;2022-11-20T17:14:16;6.20;1.00
1536;DHT22;761;50.074;8.228;2022-11-20T17:16:46;6.20;1.00
1536;DHT22;761;50.074;8.228;2022-11-20T17:19:16;6.10;1.00
1536;DHT22;761;50.074;8.228;2022-11-20T17:21:46;6.10;1.00
1536;DHT22;761;50.074;8.228;2022-11-20T17:24:15;6.00;1.00
1536;DHT22;761;50.074;8.228;2022-11-20T17:26:47;6.00;1.00
1536;DHT22;761;50.074;8.228;2022-11-20T17:29:16;6.30;1.00
1536;DHT22;761;50.074;8.228;2022-11-20T17:31:50;6.30;1.00
1536;DHT22;761;50.074;8.228;2022-11-20T17:34:21;6.20;1.00
1536;DHT22;761;50.074;8.228;2022-11-20T17:36:53;6.20;1.00
1536;DHT22;761;50.074;8.228;2022-11-20T17:39:22;6.30;1.00
1536;DHT22;761;50.074;8.228;2022-11-20T17:41:54;6.30;1.00
1536;DHT22;761;50.074;8.228;2022-11-20T17:47:10;6.30;1.00
1536;DHT22;761;50.074;8.228;2022-11-20T17:52:12;6.20;1.00